createdAt,value
2022-10-28T00:01:12.863Z,18.15
2022-10-28T00:03:42.103Z,14.75
2022-10-28T00:06:15.013Z,16.42
2022-10-28T00:08:41.927Z,18.73
2022-10-28T00:11:17.987Z,18.98
2022-10-28T00:13:45.666Z,15.70
2022-10-28T00:16:22.702Z,17.80
2022-10-28T00:18:54.094Z,14.82
2022-10-28T00:21:24.316Z,15.85
2022-10-28T00:23:51.101Z,18.30
2022-10-28T00:26:19.941Z,15.30
2022-10-28T00:28:51.500Z,19.52
2022-10-28T00:31:20.197Z,16.23
2022-10-28T00:33:47.112Z,13.30
2022-10-28T00:36:21.993Z,18.52
2022-10-28T00:38:51.911Z,17.60
2022-10-28T00:41:31.838Z,16.75
2022-10-28T00:44:22.872Z,16.30
2022-10-28T00:46:53.320Z,18.42
2022-10-28T00:49:30.203Z,16.13
2022-10-28T00:52:12.588Z,16.65
2022-10-28T00:54:40.347Z,16.50
2022-10-28T00:57:12.071Z,18.02
2022-10-28T00:59:42.722Z,17.40
2022-10-28T01:02:09.478Z,19.02
2022-10-28T01:04:36.134Z,13.18
2022-10-28T01:22:51.054Z,16.95
2022-10-28T01:25:30.640Z,15.40
2022-10-28T01:28:22.316Z,17.40
2022-10-28T01:31:10.489Z,18.33
2022-10-28T01:33:39.071Z,16.30
2022-10-28T01:36:18.020Z,22.95
2022-10-28T01:38:53.433Z,17.63
2022-10-28T01:41:41.602Z,21.38
2022-10-28T01:44:17.168Z,16.30
2022-10-28T01:46:43.687Z,21.13
2022-10-28T01:49:26.146Z,24.10
2022-10-28T01:51:57.230Z,23.27
2022-10-28T01:54:27.932Z,17.17
2022-10-28T01:56:58.060Z,18.60
2022-10-28T01:59:28.351Z,21.80
2022-10-28T02:01:55.718Z,19.30
2022-10-28T02:04:22.632Z,19.00
2022-10-28T02:06:55.734Z,21.05
2022-10-28T02:09:34.887Z,19.83
2022-10-28T02:12:19.853Z,17.85
2022-10-28T02:14:55.661Z,19.75
2022-10-28T02:17:28.234Z,20.45
2022-10-28T02:20:07.565Z,21.73
2022-10-28T02:22:51.425Z,22.35
2022-10-28T02:25:31.668Z,19.13
2022-10-28T02:28:03.748Z,21.98
2022-10-28T02:30:41.309Z,22.42
2022-10-28T02:33:12.618Z,19.70
2022-10-28T02:35:41.313Z,22.40
2022-10-28T02:38:12.585Z,24.20
2022-10-28T02:40:41.707Z,20.73
2022-10-28T02:43:10.624Z,19.90
2022-10-28T02:45:47.065Z,20.80
2022-10-28T02:48:23.608Z,24.33
2022-10-28T02:51:12.378Z,19.88
2022-10-28T02:54:03.081Z,20.60
2022-10-28T02:56:34.815Z,24.05
2022-10-28T02:59:01.569Z,18.10
2022-10-28T03:01:28.210Z,20.77
2022-10-28T03:03:55.085Z,20.40
2022-10-28T03:06:21.688Z,23.55
2022-10-28T03:08:48.218Z,26.80
2022-10-28T03:11:14.827Z,21.85
2022-10-28T03:13:41.504Z,19.45
2022-10-28T03:16:08.164Z,22.05
2022-10-28T03:18:34.691Z,23.48
2022-10-28T03:21:01.267Z,23.10
2022-10-28T03:23:27.853Z,28.23
2022-10-28T03:25:54.401Z,21.92
2022-10-28T03:28:21.003Z,24.77
2022-10-28T03:30:47.573Z,19.30
2022-10-28T03:33:14.910Z,19.35
2022-10-28T03:35:41.439Z,20.80
2022-10-28T03:38:08.175Z,18.40
2022-10-28T03:40:34.890Z,20.17
2022-10-28T03:43:01.552Z,22.20
2022-10-28T03:47:54.949Z,17.95
2022-10-28T03:50:21.831Z,19.17
2022-10-28T03:52:48.410Z,19.92
2022-10-28T03:55:14.973Z,15.18
2022-10-28T03:57:41.527Z,20.38
2022-10-28T04:00:08.803Z,17.95
2022-10-28T04:02:35.413Z,22.42
2022-10-28T04:05:01.956Z,18.45
2022-10-28T04:07:28.541Z,19.38
2022-10-28T04:09:55.180Z,16.65
2022-10-28T04:12:21.832Z,18.25
2022-10-28T04:14:48.403Z,24.38
2022-10-28T04:17:15.020Z,18.98
2022-10-28T04:19:41.609Z,19.70
2022-10-28T04:22:09.735Z,23.02
2022-10-28T04:24:36.325Z,20.05
2022-10-28T04:27:03.075Z,22.40
2022-10-28T04:29:29.618Z,19.30
2022-10-28T04:31:56.203Z,19.70
2022-10-28T04:34:22.782Z,20.13
2022-10-28T04:36:49.316Z,17.20
2022-10-28T04:39:16.803Z,20.63
2022-10-28T04:41:43.430Z,19.02
2022-10-28T04:44:10.114Z,19.50
2022-10-28T04:46:36.842Z,20.58
2022-10-28T04:49:03.804Z,17.58
2022-10-28T04:51:30.505Z,21.15
2022-10-28T04:53:57.177Z,15.45
2022-10-28T04:56:23.887Z,20.15
2022-10-28T04:58:50.689Z,21.45
2022-10-28T05:01:17.438Z,20.40
2022-10-28T05:03:44.183Z,15.82
2022-10-28T05:06:10.759Z,17.38
2022-10-28T05:08:37.359Z,17.85
2022-10-28T05:11:03.972Z,20.17
2022-10-28T05:13:30.672Z,22.45
2022-10-28T05:15:57.413Z,18.00
2022-10-28T05:18:23.971Z,21.67
2022-10-28T05:20:54.770Z,18.60
2022-10-28T05:23:28.521Z,23.98
2022-10-28T05:25:57.276Z,19.27
2022-10-28T05:28:23.897Z,18.20
2022-10-28T05:30:50.608Z,19.50
2022-10-28T05:33:18.547Z,22.08
2022-10-28T05:35:45.308Z,20.42
2022-10-28T05:38:12.003Z,16.73
2022-10-28T05:40:38.608Z,22.88
2022-10-28T05:43:05.239Z,16.92
2022-10-28T05:45:32.181Z,21.83
2022-10-28T05:47:58.774Z,18.15
2022-10-28T05:50:25.346Z,16.63
2022-10-28T05:52:56.713Z,17.48
2022-10-28T05:55:27.785Z,16.77
2022-10-28T05:57:55.821Z,15.35
2022-10-28T06:00:25.545Z,17.30
2022-10-28T06:02:52.668Z,16.33
2022-10-28T06:05:19.611Z,21.45
2022-10-28T06:07:46.151Z,19.10
2022-10-28T06:10:13.475Z,21.38
2022-10-28T06:12:38.587Z,15.35
2022-10-28T06:15:05.725Z,17.42
2022-10-28T06:17:32.314Z,23.33
2022-10-28T06:19:59.002Z,17.30
2022-10-28T06:22:25.584Z,19.40
2022-10-28T06:24:52.168Z,20.05
2022-10-28T06:27:18.683Z,21.90
2022-10-28T06:29:45.227Z,14.23
2022-10-28T06:32:11.784Z,17.92
2022-10-28T06:34:38.372Z,18.40
2022-10-28T06:37:09.295Z,16.45
2022-10-28T06:39:38.477Z,15.35
2022-10-28T06:42:05.213Z,18.35
2022-10-28T06:44:31.746Z,21.25
2022-10-28T06:46:59.802Z,20.35
2022-10-28T06:49:26.358Z,20.75
2022-10-28T06:51:52.892Z,22.25
2022-10-28T06:54:19.422Z,18.98
2022-10-28T06:56:47.548Z,17.15
2022-10-28T06:59:14.210Z,18.92
2022-10-28T07:01:41.021Z,17.42
2022-10-28T07:04:11.699Z,16.15
2022-10-28T07:06:38.615Z,17.42
2022-10-28T07:09:05.262Z,18.63
2022-10-28T07:11:31.801Z,14.07
2022-10-28T07:13:58.363Z,17.02
2022-10-28T07:16:24.946Z,17.02
2022-10-28T07:18:51.510Z,17.48
2022-10-28T07:21:18.446Z,18.08
2022-10-28T07:23:46.737Z,13.15
2022-10-28T07:26:13.273Z,17.20
2022-10-28T07:28:39.852Z,15.63
2022-10-28T07:31:06.473Z,17.05
2022-10-28T07:33:33.065Z,14.82
2022-10-28T07:36:02.365Z,14.77
2022-10-28T07:38:28.926Z,15.23
2022-10-28T07:40:55.496Z,16.10
2022-10-28T07:43:22.225Z,15.52
2022-10-28T07:45:48.805Z,15.60
2022-10-28T07:48:15.430Z,15.55
2022-10-28T07:50:42.009Z,16.90
2022-10-28T07:53:08.660Z,14.85
2022-10-28T07:55:35.222Z,19.10
2022-10-28T07:58:01.796Z,20.65
2022-10-28T08:00:28.355Z,15.15
2022-10-28T08:02:54.983Z,15.20
2022-10-28T08:05:21.537Z,14.88
2022-10-28T08:07:48.106Z,16.40
2022-10-28T08:10:14.728Z,15.68
2022-10-28T08:12:41.286Z,9.38
2022-10-28T08:15:10.462Z,13.88
2022-10-28T08:17:37.070Z,19.52
2022-10-28T08:20:04.391Z,13.70
2022-10-28T08:22:30.956Z,12.77
2022-10-28T08:24:57.500Z,17.52
2022-10-28T08:27:24.063Z,19.83
2022-10-28T08:29:50.657Z,13.98
2022-10-28T08:32:17.208Z,14.27
2022-10-28T08:34:43.933Z,9.63
2022-10-28T08:37:10.776Z,18.17
2022-10-28T08:39:37.496Z,15.52
2022-10-28T08:42:33.615Z,14.27
2022-10-28T08:45:15.745Z,14.40
2022-10-28T08:48:05.714Z,12.02
2022-10-28T08:50:44.360Z,14.55
2022-10-28T08:53:17.028Z,10.52
2022-10-28T08:55:47.161Z,15.40
2022-10-28T08:58:25.316Z,16.02
2022-10-28T09:00:54.951Z,12.85
2022-10-28T09:03:25.888Z,14.32
2022-10-28T09:06:03.634Z,14.10
2022-10-28T09:08:34.844Z,15.07
2022-10-28T09:11:09.270Z,15.52
2022-10-28T09:13:45.013Z,9.35
2022-10-28T09:16:39.867Z,15.70
2022-10-28T09:19:35.529Z,11.85
2022-10-28T09:22:02.032Z,20.38
2022-10-28T09:24:52.362Z,16.10
2022-10-28T09:27:37.539Z,15.45
2022-10-28T09:30:34.965Z,17.58
2022-10-28T09:33:08.878Z,11.95
2022-10-28T09:35:42.602Z,12.77
2022-10-28T09:38:28.831Z,12.98
2022-10-28T09:41:01.738Z,13.70
2022-10-28T09:43:35.389Z,14.30
2022-10-28T09:46:23.690Z,14.50
2022-10-28T09:48:55.713Z,12.05
2022-10-28T09:51:54.562Z,10.15
2022-10-28T09:54:32.372Z,11.88
2022-10-28T09:56:59.179Z,11.63
2022-10-28T09:59:25.751Z,12.05
2022-10-28T10:01:52.517Z,16.50
2022-10-28T10:04:22.167Z,15.13
2022-10-28T10:06:52.793Z,12.02
2022-10-28T10:09:24.832Z,16.95
2022-10-28T10:11:55.798Z,10.05
2022-10-28T10:14:28.706Z,18.08
2022-10-28T10:17:06.862Z,12.45
2022-10-28T10:19:58.185Z,11.50
2022-10-28T10:22:46.314Z,12.13
2022-10-28T10:25:18.929Z,14.52
2022-10-28T10:28:00.569Z,13.55
2022-10-28T10:30:46.025Z,16.42
2022-10-28T10:33:21.560Z,15.55
2022-10-28T10:36:00.158Z,13.40
2022-10-28T10:38:28.237Z,13.45
2022-10-28T10:40:55.210Z,16.08
2022-10-28T10:43:36.353Z,13.57
2022-10-28T10:46:16.592Z,13.77
2022-10-28T10:48:43.667Z,14.32
2022-10-28T10:51:26.074Z,13.00
2022-10-28T10:53:57.607Z,14.38
2022-10-28T10:56:33.096Z,12.43
2022-10-28T10:59:19.533Z,10.07
2022-10-28T11:01:46.175Z,15.75
2022-10-28T11:04:18.689Z,11.48
2022-10-28T11:06:50.762Z,12.45
2022-10-28T11:09:36.539Z,11.00
2022-10-28T11:12:28.161Z,11.27
2022-10-28T11:15:00.797Z,9.50
2022-10-28T11:17:30.167Z,11.10
2022-10-28T11:20:06.061Z,10.48
2022-10-28T11:22:47.090Z,16.42
2022-10-28T11:25:29.938Z,11.23
2022-10-28T11:27:57.625Z,10.95
2022-10-28T11:30:46.362Z,11.52
2022-10-28T11:33:35.020Z,12.35
2022-10-28T11:36:30.880Z,12.27
2022-10-28T11:39:15.638Z,14.90
2022-10-28T11:42:12.888Z,10.30
2022-10-28T11:44:54.621Z,15.80
2022-10-28T11:47:27.029Z,11.70
2022-10-28T11:50:11.408Z,13.52
2022-10-28T11:52:42.604Z,10.43
2022-10-28T11:55:32.687Z,15.40
2022-10-28T11:58:36.852Z,10.38
2022-10-28T12:01:30.163Z,16.20
2022-10-28T12:04:14.900Z,10.52
2022-10-28T12:06:59.863Z,11.80
2022-10-28T12:09:42.951Z,9.10
2022-10-28T12:12:25.197Z,14.43
2022-10-28T12:15:11.359Z,15.45
2022-10-28T12:17:53.778Z,14.85
2022-10-28T12:20:26.736Z,16.23
2022-10-28T12:22:58.133Z,14.85
2022-10-28T12:25:28.976Z,17.25
2022-10-28T12:28:03.312Z,9.13
2022-10-28T12:30:34.325Z,11.57
2022-10-28T12:33:07.620Z,11.25
2022-10-28T12:35:39.503Z,11.50
2022-10-28T12:38:23.078Z,9.57
2022-10-28T12:40:59.729Z,10.93
2022-10-28T12:43:54.412Z,9.90
2022-10-28T12:46:37.306Z,10.07
2022-10-28T12:49:11.168Z,11.85
2022-10-28T12:51:40.493Z,8.38
2022-10-28T12:54:30.923Z,11.32
2022-10-28T12:57:09.599Z,9.45
2022-10-28T12:59:42.400Z,10.60
2022-10-28T13:02:36.168Z,10.95
2022-10-28T13:05:04.595Z,7.00
2022-10-28T13:07:58.759Z,10.48
2022-10-28T13:10:41.930Z,11.30
2022-10-28T13:13:43.959Z,8.43
2022-10-28T13:16:53.503Z,9.43
2022-10-28T13:19:29.026Z,11.82
2022-10-28T13:21:55.580Z,9.60
2022-10-28T13:24:31.230Z,10.52
2022-10-28T13:27:01.805Z,10.75
2022-10-28T13:29:33.238Z,10.77
2022-10-28T13:32:00.374Z,7.72
2022-10-28T13:34:39.089Z,12.38
2022-10-28T13:37:17.992Z,10.25
2022-10-28T13:39:46.745Z,9.15
2022-10-28T13:42:13.251Z,11.50
2022-10-28T13:44:48.795Z,10.50
2022-10-28T13:47:15.452Z,11.60
2022-10-28T13:50:07.786Z,13.95
2022-10-28T13:52:39.709Z,15.00
2022-10-28T13:55:24.448Z,11.88
2022-10-28T13:58:04.677Z,10.23
2022-10-28T14:00:31.192Z,5.82
2022-10-28T14:03:01.286Z,7.65
2022-10-28T14:05:37.363Z,9.57
2022-10-28T14:08:18.309Z,9.63
2022-10-28T14:11:22.663Z,10.50
2022-10-28T14:13:53.266Z,10.13
2022-10-28T14:16:25.145Z,12.35
2022-10-28T14:19:09.865Z,12.20
2022-10-28T14:21:55.329Z,8.50
2022-10-28T14:24:31.979Z,11.75
2022-10-28T14:27:08.300Z,9.15
2022-10-28T14:29:45.059Z,9.13
2022-10-28T14:32:33.378Z,10.65
2022-10-28T14:35:14.199Z,6.82
2022-10-28T14:38:18.275Z,9.77
2022-10-28T14:40:54.065Z,8.82
2022-10-28T14:43:44.147Z,10.00
2022-10-28T14:46:16.575Z,9.13
2022-10-28T14:48:55.265Z,9.02
2022-10-28T14:51:25.442Z,11.98
2022-10-28T14:53:57.462Z,14.63
2022-10-28T14:56:31.931Z,9.30
2022-10-28T14:59:05.405Z,10.63
2022-10-28T15:01:59.477Z,9.25
2022-10-28T15:04:26.460Z,16.55
2022-10-28T15:06:53.587Z,9.73
2022-10-28T15:09:21.917Z,12.00
2022-10-28T15:12:01.331Z,9.40
2022-10-28T15:14:33.009Z,9.50
2022-10-28T15:17:09.810Z,10.93
2022-10-28T15:19:37.158Z,11.40
2022-10-28T15:22:14.430Z,10.20
2022-10-28T15:24:44.601Z,13.32
2022-10-28T15:27:14.313Z,7.40
2022-10-28T15:29:42.187Z,12.60
2022-10-28T15:32:20.720Z,17.23
2022-10-28T15:34:48.676Z,11.25
2022-10-28T15:37:23.082Z,10.02
2022-10-28T15:39:52.480Z,12.35
2022-10-28T15:42:28.143Z,9.38
2022-10-28T15:44:56.826Z,11.57
2022-10-28T15:47:32.951Z,10.60
2022-10-28T15:50:15.995Z,18.20
2022-10-28T15:52:42.549Z,9.20
2022-10-28T15:55:19.238Z,11.10
2022-10-28T15:57:48.789Z,10.85
2022-10-28T16:00:26.749Z,14.25
2022-10-28T16:03:05.261Z,12.05
2022-10-28T16:05:31.895Z,15.48
2022-10-28T16:08:05.393Z,13.23
2022-10-28T16:10:36.788Z,11.70
2022-10-28T16:13:09.072Z,13.25
2022-10-28T16:15:48.838Z,15.27
2022-10-28T16:18:15.706Z,11.00
2022-10-28T16:20:44.368Z,8.93
2022-10-28T16:23:17.581Z,11.38
2022-10-28T16:25:44.282Z,15.00
2022-10-28T16:28:20.619Z,8.27
2022-10-28T16:30:47.553Z,15.05
2022-10-28T16:33:14.113Z,13.88
2022-10-28T16:35:40.648Z,13.32
2022-10-28T16:38:12.725Z,8.63
2022-10-28T16:40:55.299Z,9.75
2022-10-28T16:43:24.898Z,8.73
2022-10-28T16:45:53.703Z,8.93
2022-10-28T16:48:23.123Z,10.45
2022-10-28T16:50:52.889Z,9.35
2022-10-28T16:53:19.867Z,13.13
2022-10-28T16:55:46.911Z,10.45
2022-10-28T16:58:13.711Z,7.72
2022-10-28T17:00:41.104Z,12.48
2022-10-28T17:03:11.188Z,9.40
2022-10-28T17:05:37.761Z,13.85
2022-10-28T17:08:07.331Z,12.07
2022-10-28T17:10:36.947Z,9.70
2022-10-28T17:13:03.513Z,12.48
2022-10-28T17:15:30.111Z,7.78
2022-10-28T17:17:58.080Z,8.38
2022-10-28T17:20:24.803Z,10.02
2022-10-28T17:22:51.378Z,13.95
2022-10-28T17:25:18.262Z,15.32
2022-10-28T17:27:48.843Z,10.82
2022-10-28T17:30:17.240Z,15.63
2022-10-28T17:32:45.295Z,12.55
2022-10-28T17:35:11.878Z,11.30
2022-10-28T17:37:38.427Z,10.80
2022-10-28T17:40:05.721Z,13.73
2022-10-28T17:42:32.318Z,13.43
2022-10-28T17:44:58.833Z,11.65
2022-10-28T17:47:25.398Z,11.98
2022-10-28T17:49:51.904Z,13.07
2022-10-28T17:52:18.439Z,10.07
2022-10-28T17:54:46.068Z,12.32
2022-10-28T17:57:12.751Z,15.35
2022-10-28T17:59:39.362Z,8.23
2022-10-28T18:02:06.528Z,11.05
2022-10-28T18:04:33.297Z,13.70
2022-10-28T18:06:59.857Z,13.32
2022-10-28T18:09:28.313Z,12.52
2022-10-28T18:11:54.839Z,13.68
2022-10-28T18:14:21.545Z,16.02
2022-10-28T18:16:50.303Z,10.05
2022-10-28T18:19:17.054Z,11.73
2022-10-28T18:21:44.838Z,13.07
2022-10-28T18:24:11.574Z,14.43
2022-10-28T18:26:39.447Z,12.27
2022-10-28T18:29:09.920Z,13.63
2022-10-28T18:31:38.082Z,9.10
2022-10-28T18:34:04.968Z,9.95
2022-10-28T18:36:35.546Z,13.25
2022-10-28T18:39:04.566Z,11.15
2022-10-28T18:41:31.788Z,8.45
2022-10-28T18:44:00.571Z,12.80
2022-10-28T18:46:28.682Z,12.43
2022-10-28T18:48:57.253Z,11.65
2022-10-28T18:51:24.476Z,8.35
2022-10-28T18:53:52.024Z,12.38
2022-10-28T18:56:20.774Z,9.75
2022-10-28T18:58:52.085Z,15.45
2022-10-28T19:01:21.608Z,11.27
2022-10-28T19:03:52.917Z,10.27
2022-10-28T19:06:20.389Z,11.65
2022-10-28T19:08:51.993Z,10.38
2022-10-28T19:11:19.227Z,11.25
2022-10-28T19:13:45.776Z,10.15
2022-10-28T19:18:43.964Z,12.00
2022-10-28T19:21:13.932Z,13.15
2022-10-28T19:23:41.534Z,11.73
2022-10-28T19:26:09.253Z,13.02
2022-10-28T19:28:41.081Z,15.43
2022-10-28T19:31:10.285Z,16.00
2022-10-28T19:33:40.150Z,11.15
2022-10-28T19:36:24.111Z,15.00
2022-10-28T19:38:53.677Z,16.98
2022-10-28T19:41:23.371Z,16.83
2022-10-28T19:43:56.837Z,14.48
2022-10-28T19:46:28.489Z,17.83
2022-10-28T19:48:57.112Z,18.65
2022-10-28T19:51:27.351Z,13.77
2022-10-28T19:53:59.391Z,15.32
2022-10-28T19:56:28.088Z,14.10
2022-10-28T19:58:57.033Z,13.60
2022-10-28T20:01:25.301Z,17.83
2022-10-28T20:03:53.069Z,16.85
2022-10-28T20:06:21.971Z,12.50
2022-10-28T20:08:49.569Z,11.32
2022-10-28T20:11:24.985Z,12.40
2022-10-28T20:13:55.667Z,15.13
2022-10-28T20:16:23.113Z,9.77
2022-10-28T20:18:50.583Z,13.48
2022-10-28T20:21:19.667Z,12.48
2022-10-28T20:26:23.176Z,15.02
2022-10-28T20:28:50.666Z,16.95
2022-10-28T20:31:19.707Z,12.50
2022-10-28T20:33:51.610Z,13.40
2022-10-28T20:36:39.610Z,10.57
2022-10-28T20:39:15.724Z,10.93
2022-10-28T20:41:43.788Z,8.38
2022-10-28T20:44:10.659Z,10.98
2022-10-28T20:46:37.888Z,10.68
2022-10-28T20:49:05.546Z,11.65
2022-10-28T20:51:33.265Z,11.18
2022-10-28T20:54:00.448Z,10.20
2022-10-28T20:56:29.484Z,14.27
2022-10-28T20:58:57.835Z,12.38
2022-10-28T21:01:36.138Z,10.95
2022-10-28T21:04:06.109Z,10.00
2022-10-28T21:06:33.442Z,14.02
2022-10-28T21:09:00.348Z,11.48
2022-10-28T21:11:27.959Z,12.75
2022-10-28T21:14:00.111Z,12.40
2022-10-28T21:16:27.504Z,13.73
2022-10-28T21:18:54.483Z,9.98
2022-10-28T21:21:22.729Z,9.25
2022-10-28T21:23:49.532Z,8.05
2022-10-28T21:26:16.196Z,12.65
2022-10-28T21:28:43.202Z,14.77
2022-10-28T21:31:15.018Z,15.35
2022-10-28T21:33:42.795Z,14.13
2022-10-28T21:36:11.932Z,8.57
2022-10-28T21:38:38.522Z,8.30
2022-10-28T21:41:09.638Z,11.52
2022-10-28T21:43:38.562Z,10.80
2022-10-28T21:46:06.193Z,10.90
2022-10-28T21:48:34.183Z,6.70
2022-10-28T21:51:03.092Z,6.72
2022-10-28T21:53:32.879Z,9.70
2022-10-28T21:56:16.496Z,7.28
2022-10-28T21:58:43.670Z,9.13
2022-10-28T22:01:22.829Z,11.25
2022-10-28T22:03:51.513Z,10.23
2022-10-28T22:06:18.099Z,11.98
2022-10-28T22:08:44.874Z,14.20
2022-10-28T22:11:17.425Z,17.77
2022-10-28T22:13:44.592Z,21.30
2022-10-28T22:16:16.501Z,18.60
2022-10-28T22:18:44.201Z,17.10
2022-10-28T22:21:13.637Z,12.70
2022-10-28T22:23:40.311Z,18.08
2022-10-28T22:26:09.750Z,19.70
2022-10-28T22:28:36.597Z,19.70
2022-10-28T22:31:08.224Z,13.98
2022-10-28T22:33:35.449Z,15.90
2022-10-28T22:36:07.662Z,14.15
2022-10-28T22:38:34.536Z,11.73
2022-10-28T22:41:23.889Z,10.00
2022-10-28T22:43:53.170Z,13.05
2022-10-28T22:46:20.832Z,13.65
2022-10-28T22:48:48.014Z,11.55
2022-10-28T22:51:15.871Z,10.48
2022-10-28T22:53:43.028Z,9.57
2022-10-28T22:56:14.422Z,11.30
2022-10-28T22:58:41.100Z,13.57
2022-10-28T23:01:12.999Z,14.80
2022-10-28T23:03:42.021Z,10.20
2022-10-28T23:06:10.342Z,7.90
2022-10-28T23:08:41.155Z,9.18
2022-10-28T23:11:08.684Z,16.45
2022-10-28T23:16:15.648Z,10.60
2022-10-28T23:18:43.672Z,7.55
2022-10-28T23:21:14.205Z,12.85
2022-10-28T23:23:42.127Z,11.27
2022-10-28T23:26:13.159Z,10.60
2022-10-28T23:28:40.782Z,13.23
2022-10-28T23:31:07.939Z,10.82
2022-10-28T23:33:35.079Z,13.18
2022-10-28T23:36:03.970Z,15.23
2022-10-28T23:38:31.950Z,10.63
2022-10-28T23:41:03.938Z,8.18
2022-10-28T23:43:31.892Z,9.65
2022-10-28T23:45:59.447Z,10.13
2022-10-28T23:48:27.437Z,10.73
2022-10-28T23:50:54.842Z,7.25
2022-10-28T23:53:22.272Z,12.68
2022-10-28T23:55:49.937Z,13.00
2022-10-28T23:58:18.463Z,12.48
